Time;durP1;ratioP1;P1;durP2;ratioP2;P2;SDS_P1;SDS_P2;PMS_P1;PMS_P2;Temp;Humidity;BMP_temperature;BMP_pressure;BME280_temperature;BME280_humidity;BME280_pressure;Samples;Min_cycle;Max_cycle;Signal;HPM_P1;HPM_P2
2023/01/12 00:01:56;;;;;;;12.40;6.57;;;6.90;99.90;;;;;;5056340;28;20474;-70
2023/01/12 00:04:23;;;;;;;13.73;6.73;;;6.80;99.90;;;;;;5056352;28;20501;-71
2023/01/12 00:06:50;;;;;;;10.80;5.77;;;6.80;99.90;;;;;;5056383;28;20569;-70
2023/01/12 00:09:16;;;;;;;14.97;7.23;;;6.80;99.90;;;;;;5055944;28;20487;-70
2023/01/12 00:11:45;;;;;;;12.23;7.27;;;6.80;99.90;;;;;;5055361;28;20554;-70
2023/01/12 00:14:11;;;;;;;11.57;7.07;;;6.80;99.90;;;;;;5055251;28;20469;-70
2023/01/12 00:16:39;;;;;;;13.10;7.10;;;6.70;99.90;;;;;;5054701;28;20872;-70
2023/01/12 00:19:10;;;;;;;15.03;6.30;;;6.70;99.90;;;;;;5055281;28;20490;-69
2023/01/12 00:21:48;;;;;;;16.70;6.73;;;6.70;99.90;;;;;;5055042;28;20836;-70
2023/01/12 00:24:16;;;;;;;9.77;7.10;;;6.80;99.90;;;;;;5055640;28;20775;-70
2023/01/12 00:26:46;;;;;;;10.97;7.27;;;6.70;99.90;;;;;;5055204;28;20549;-71
2023/01/12 00:29:13;;;;;;;12.73;6.53;;;6.80;99.90;;;;;;5055800;28;20554;-70
2023/01/12 00:31:40;;;;;;;12.20;6.40;;;6.80;99.90;;;;;;5055479;28;20460;-70
2023/01/12 00:34:07;;;;;;;9.13;5.43;;;6.80;99.90;;;;;;5054745;28;20479;-70
2023/01/12 00:36:34;;;;;;;8.03;5.13;;;6.80;99.90;;;;;;5054812;28;20451;-70
2023/01/12 00:39:01;;;;;;;12.53;6.40;;;6.80;99.90;;;;;;5054683;28;20457;-69
2023/01/12 00:46:57;;;;;;;10.70;5.33;;;6.80;99.90;;;;;;5054921;28;20771;-70
2023/01/12 00:49:24;;;;;;;12.57;5.70;;;6.80;99.90;;;;;;5054805;28;20559;-71
2023/01/12 00:51:51;;;;;;;12.43;5.53;;;6.80;99.90;;;;;;5055303;28;20537;-70
2023/01/12 00:54:18;;;;;;;14.93;5.90;;;6.80;99.90;;;;;;5054279;28;20505;-71
2023/01/12 00:56:45;;;;;;;9.33;4.30;;;6.80;99.90;;;;;;5054239;28;20455;-69
2023/01/12 00:59:13;;;;;;;10.63;4.77;;;6.80;99.90;;;;;;5054619;28;20515;-69
2023/01/12 01:01:40;;;;;;;6.83;5.00;;;6.80;99.90;;;;;;5054259;28;20542;-71
2023/01/12 01:04:07;;;;;;;9.30;4.57;;;6.80;99.90;;;;;;5054384;28;20465;-69
2023/01/12 01:06:36;;;;;;;9.30;4.40;;;6.80;99.90;;;;;;5054249;28;20455;-70
2023/01/12 01:09:03;;;;;;;15.73;4.43;;;6.80;99.90;;;;;;5054543;28;20975;-70
2023/01/12 01:11:30;;;;;;;10.53;4.43;;;6.80;99.90;;;;;;5054034;28;20497;-70
2023/01/12 01:13:58;;;;;;;9.90;3.60;;;6.70;99.90;;;;;;5054380;28;20554;-69
2023/01/12 01:16:26;;;;;;;9.83;4.50;;;6.80;99.90;;;;;;5053925;28;20580;-70
2023/01/12 01:18:53;;;;;;;7.60;4.30;;;6.80;99.90;;;;;;5054020;28;20546;-71
2023/01/12 01:21:20;;;;;;;11.27;5.40;;;6.80;99.90;;;;;;5054109;28;20493;-70
2023/01/12 01:23:47;;;;;;;11.07;4.63;;;6.80;99.90;;;;;;5053754;28;20920;-70
2023/01/12 01:26:16;;;;;;;10.53;3.93;;;6.80;99.90;;;;;;5054049;28;20546;-70
2023/01/12 01:28:43;;;;;;;9.47;3.90;;;6.70;99.90;;;;;;5054364;28;20455;-70
2023/01/12 01:31:12;;;;;;;7.90;2.90;;;6.70;99.90;;;;;;5058118;28;20535;-70
2023/01/12 01:33:41;;;;;;;7.40;3.37;;;6.80;99.90;;;;;;5058202;28;20451;-70
2023/01/12 01:36:08;;;;;;;6.50;3.03;;;6.80;99.90;;;;;;5058246;28;20550;-69
2023/01/12 01:38:36;;;;;;;9.70;3.63;;;6.80;99.90;;;;;;5058166;28;20465;-71
2023/01/12 01:41:03;;;;;;;14.57;3.23;;;6.80;99.90;;;;;;5057889;28;20482;-70
2023/01/12 01:43:49;;;;;;;10.67;3.37;;;6.70;99.90;;;;;;5058042;28;20886;-70
2023/01/12 01:46:21;;;;;;;6.80;3.00;;;6.70;99.90;;;;;;5058096;28;20447;-70
2023/01/12 01:48:49;;;;;;;9.80;2.83;;;6.80;99.90;;;;;;5058329;28;20462;-69
2023/01/12 01:51:17;;;;;;;6.40;3.10;;;6.80;99.90;;;;;;5057832;28;20461;-70
2023/01/12 01:53:47;;;;;;;8.20;3.13;;;6.90;99.90;;;;;;5058074;28;20462;-71
2023/01/12 01:56:19;;;;;;;9.70;3.77;;;6.90;99.90;;;;;;5058312;28;20462;-69
2023/01/12 01:58:51;;;;;;;6.67;3.07;;;6.90;99.90;;;;;;5057967;28;20530;-70
2023/01/12 02:01:18;;;;;;;8.13;3.00;;;6.90;99.90;;;;;;5058769;28;20479;-71
2023/01/12 02:03:46;;;;;;;9.07;2.63;;;7.00;99.90;;;;;;5057894;28;20520;-72
2023/01/12 02:06:15;;;;;;;8.93;3.50;;;7.00;99.90;;;;;;5058338;28;20465;-70
2023/01/12 02:08:47;;;;;;;10.43;3.93;;;7.00;99.90;;;;;;5058488;28;20459;-70
2023/01/12 02:16:53;;;;;;;10.43;2.43;;;7.10;99.90;;;;;;5057940;28;20488;-71
2023/01/12 02:19:42;;;;;;;7.90;2.73;;;7.00;99.90;;;;;;5057569;28;20439;-71
2023/01/12 02:22:58;;;;;;;8.07;2.50;;;7.00;99.90;;;;;;5057047;28;20493;-70
2023/01/12 02:25:55;;;;;;;8.43;2.77;;;7.00;99.90;;;;;;5055735;28;20539;-69
2023/01/12 02:28:53;;;;;;;6.73;2.70;;;6.90;99.90;;;;;;5026663;28;20542;-71
2023/01/12 02:31:36;;;;;;;8.90;2.40;;;7.00;99.90;;;;;;5056038;28;20751;-71
2023/01/12 02:34:14;;;;;;;9.97;2.40;;;7.00;99.90;;;;;;5056315;28;20450;-69
2023/01/12 02:36:50;;;;;;;13.27;2.87;;;7.00;99.90;;;;;;5055803;28;20967;-70
2023/01/12 02:39:22;;;;;;;11.80;3.10;;;7.00;99.90;;;;;;5056228;28;20826;-70
2023/01/12 02:44:51;;;;;;;8.33;2.90;;;6.90;99.90;;;;;;5055932;28;20504;-71
2023/01/12 02:47:27;;;;;;;11.57;2.10;;;6.80;99.90;;;;;;5055816;28;20522;-71
2023/01/12 02:49:59;;;;;;;6.80;2.57;;;6.80;99.90;;;;;;5056473;28;20514;-71
2023/01/12 02:52:29;;;;;;;9.37;3.07;;;6.70;99.90;;;;;;5055797;28;20443;-71
2023/01/12 02:54:58;;;;;;;5.37;2.00;;;6.70;99.90;;;;;;5055694;28;20904;-69
2023/01/12 02:57:26;;;;;;;7.17;3.10;;;6.70;99.90;;;;;;5056599;28;20541;-69
2023/01/12 02:59:55;;;;;;;7.10;2.50;;;6.70;99.90;;;;;;5056288;28;20588;-69
2023/01/12 03:02:26;;;;;;;6.57;1.70;;;6.70;99.90;;;;;;5056703;28;20787;-70
2023/01/12 03:04:54;;;;;;;7.30;2.23;;;6.60;99.90;;;;;;5056009;28;20447;-71
2023/01/12 03:07:41;;;;;;;5.93;1.90;;;6.60;99.90;;;;;;5056725;28;20459;-71
2023/01/12 03:10:50;;;;;;;6.67;2.00;;;6.70;99.90;;;;;;5056458;28;20442;-71
2023/01/12 03:13:19;;;;;;;6.87;2.53;;;6.70;99.90;;;;;;5021897;28;20487;-70
2023/01/12 03:15:49;;;;;;;8.73;2.07;;;6.60;99.90;;;;;;5057233;28;20471;-70
2023/01/12 03:18:28;;;;;;;8.53;2.30;;;6.60;99.90;;;;;;5056469;28;20458;-70
2023/01/12 03:21:00;;;;;;;4.03;1.70;;;6.60;99.90;;;;;;5056116;28;20532;-71
2023/01/12 03:23:34;;;;;;;10.03;2.43;;;6.70;99.90;;;;;;5015053;28;1186866;-70
2023/01/12 03:26:03;;;;;;;7.37;2.73;;;6.70;99.90;;;;;;5057945;28;20266;-70
2023/01/12 03:28:36;;;;;;;5.83;2.63;;;6.70;99.90;;;;;;5056584;28;20475;-70
2023/01/12 03:31:09;;;;;;;8.00;1.90;;;6.70;99.90;;;;;;5056479;28;20439;-69
2023/01/12 03:33:39;;;;;;;9.03;2.50;;;6.70;99.90;;;;;;5056983;28;20834;-71
2023/01/12 03:36:13;;;;;;;8.50;2.20;;;6.70;99.90;;;;;;5056240;28;20459;-70
2023/01/12 03:38:49;;;;;;;10.20;2.13;;;6.70;99.90;;;;;;5056288;28;20439;-70
2023/01/12 03:41:26;;;;;;;7.63;2.60;;;6.80;99.90;;;;;;5055883;28;20570;-71
2023/01/12 03:43:57;;;;;;;8.07;2.00;;;6.70;99.90;;;;;;5056418;28;20462;-70
2023/01/12 03:46:28;;;;;;;11.37;2.30;;;6.80;99.90;;;;;;5056087;28;20848;-69
2023/01/12 03:49:01;;;;;;;6.90;2.60;;;6.80;99.90;;;;;;5056004;28;20920;-70
2023/01/12 03:51:33;;;;;;;4.73;2.07;;;6.90;99.90;;;;;;5055752;28;20450;-70
2023/01/12 03:54:00;;;;;;;9.03;2.40;;;6.90;99.90;;;;;;5055613;28;20450;-70
2023/01/12 03:56:33;;;;;;;6.27;2.20;;;6.90;99.90;;;;;;5056416;28;20451;-69
2023/01/12 03:59:00;;;;;;;7.33;2.13;;;6.90;99.90;;;;;;5056156;28;20526;-69
2023/01/12 04:01:27;;;;;;;7.43;2.13;;;7.00;99.90;;;;;;5056095;28;20487;-70
2023/01/12 04:03:54;;;;;;;4.20;1.70;;;7.00;99.90;;;;;;5056133;28;20459;-70
2023/01/12 04:06:22;;;;;;;8.67;2.63;;;7.10;99.90;;;;;;5056138;28;20493;-71
2023/01/12 04:08:49;;;;;;;13.20;2.20;;;7.10;99.90;;;;;;5055977;28;20455;-70
2023/01/12 04:14:01;;;;;;;7.37;2.33;;;7.10;99.90;;;;;;5055668;28;20482;-69
2023/01/12 04:16:27;;;;;;;2.60;1.47;;;7.10;99.90;;;;;;5055760;28;20459;-70
2023/01/12 04:18:54;;;;;;;4.93;2.23;;;7.20;99.90;;;;;;5056041;28;20562;-70
2023/01/12 04:24:07;;;;;;;4.77;1.87;;;7.20;99.90;;;;;;5055318;28;20945;-71
2023/01/12 04:26:34;;;;;;;6.63;2.33;;;7.20;99.90;;;;;;5055235;28;20546;-70
2023/01/12 04:29:01;;;;;;;6.50;1.90;;;7.20;99.90;;;;;;5055313;28;20502;-71
2023/01/12 04:31:28;;;;;;;8.73;2.10;;;7.20;99.90;;;;;;5055519;28;20462;-71
2023/01/12 04:33:54;;;;;;;4.80;1.70;;;7.20;99.90;;;;;;5055379;28;20463;-69
2023/01/12 04:36:23;;;;;;;7.17;1.87;;;7.20;99.90;;;;;;5055159;28;20517;-70
2023/01/12 04:38:49;;;;;;;9.40;1.97;;;7.20;99.90;;;;;;5055277;28;20490;-70
2023/01/12 04:41:16;;;;;;;7.20;2.63;;;7.20;99.90;;;;;;5055831;28;21026;-71
2023/01/12 04:43:43;;;;;;;2.67;1.67;;;7.20;99.90;;;;;;5056169;28;20451;-70
2023/01/12 04:46:10;;;;;;;4.10;1.50;;;7.30;99.90;;;;;;5055678;28;20545;-70
2023/01/12 04:48:39;;;;;;;8.80;1.90;;;7.30;99.90;;;;;;5055174;28;20513;-70
2023/01/12 04:51:06;;;;;;;4.30;1.40;;;7.30;99.90;;;;;;5055126;28;20455;-70
2023/01/12 04:53:34;;;;;;;8.10;2.13;;;7.30;99.90;;;;;;5055235;28;20489;-70
2023/01/12 04:56:04;;;;;;;10.10;1.90;;;7.30;99.90;;;;;;5055137;28;20554;-70
2023/01/12 04:58:31;;;;;;;8.67;1.90;;;7.40;99.90;;;;;;5056407;28;20465;-69
2023/01/12 05:00:58;;;;;;;8.33;2.20;;;7.40;99.90;;;;;;5055260;28;20513;-68
2023/01/12 05:03:25;;;;;;;9.87;2.47;;;7.40;99.90;;;;;;5055384;28;20451;-70
2023/01/12 05:05:51;;;;;;;11.50;2.10;;;7.40;99.90;;;;;;5055356;28;20459;-70
2023/01/12 05:11:04;;;;;;;5.60;1.57;;;7.50;99.90;;;;;;5054897;28;20474;-70
2023/01/12 05:13:32;;;;;;;6.37;1.63;;;7.50;99.90;;;;;;5055050;28;20455;-70
2023/01/12 05:16:09;;;;;;;4.37;1.53;;;7.60;99.90;;;;;;5054560;28;20537;-71
2023/01/12 05:18:35;;;;;;;5.20;1.87;;;7.60;99.90;;;;;;5054949;28;20453;-70
2023/01/12 05:21:02;;;;;;;5.70;1.70;;;7.60;99.90;;;;;;5054884;28;20493;-70
2023/01/12 05:23:29;;;;;;;6.33;1.80;;;7.60;99.90;;;;;;5054817;28;20801;-71
2023/01/12 05:25:59;;;;;;;5.50;1.80;;;7.70;99.90;;;;;;5054571;28;20490;-70
2023/01/12 05:28:27;;;;;;;4.93;1.70;;;7.60;99.90;;;;;;5054590;28;20542;-69
2023/01/12 05:30:54;;;;;;;9.90;1.90;;;7.60;99.90;;;;;;5054499;28;20537;-70
2023/01/12 05:33:21;;;;;;;3.40;1.47;;;7.70;99.90;;;;;;5054831;28;20798;-70
2023/01/12 05:35:48;;;;;;;6.50;1.47;;;7.70;99.90;;;;;;5054876;28;20553;-70
2023/01/12 05:38:15;;;;;;;9.23;1.73;;;7.70;99.90;;;;;;5054507;28;20543;-70
2023/01/12 05:40:42;;;;;;;12.07;1.83;;;7.70;99.90;;;;;;5054141;28;20490;-70
2023/01/12 05:46:02;;;;;;;5.00;1.90;;;7.80;99.90;;;;;;5054635;28;20891;-71
2023/01/12 05:48:29;;;;;;;6.80;1.57;;;7.80;99.90;;;;;;5054340;28;20474;-70
2023/01/12 05:50:59;;;;;;;10.00;1.80;;;7.90;99.90;;;;;;5054075;28;20451;-70
2023/01/12 05:53:26;;;;;;;7.67;1.70;;;7.90;99.90;;;;;;5054875;28;20497;-69
2023/01/12 05:55:53;;;;;;;4.17;1.93;;;7.80;99.90;;;;;;5054119;28;20530;-70
2023/01/12 05:58:20;;;;;;;4.77;1.70;;;7.90;99.90;;;;;;5054631;28;20845;-70
2023/01/12 06:00:47;;;;;;;5.87;1.57;;;7.90;99.90;;;;;;5054300;28;20905;-71
2023/01/12 06:03:16;;;;;;;9.83;1.60;;;7.90;99.90;;;;;;5054746;28;20809;-71
2023/01/12 06:05:43;;;;;;;4.90;2.00;;;7.90;99.90;;;;;;5054355;28;20533;-70
2023/01/12 06:08:09;;;;;;;6.93;1.80;;;7.90;99.90;;;;;;5054359;28;20633;-71
2023/01/12 06:10:38;;;;;;;7.00;1.97;;;7.90;99.90;;;;;;5054485;28;20491;-70
2023/01/12 06:15:49;;;;;;;3.90;1.70;;;7.90;99.90;;;;;;5056833;28;20418;-70
2023/01/12 06:18:21;;;;;;;5.30;1.70;;;7.90;99.90;;;;;;5058820;28;20493;-71
2023/01/12 06:20:48;;;;;;;3.37;1.50;;;7.90;99.90;;;;;;5058329;28;20494;-70
2023/01/12 06:23:14;;;;;;;10.20;2.20;;;7.90;99.90;;;;;;5057605;28;20573;-70
2023/01/12 06:25:41;;;;;;;6.17;1.80;;;7.90;99.90;;;;;;5057309;28;20940;-70
2023/01/12 06:28:08;;;;;;;9.13;2.13;;;7.90;99.90;;;;;;5057395;28;20541;-70
2023/01/12 06:30:35;;;;;;;11.47;2.10;;;7.90;99.90;;;;;;5057057;28;20558;-71
2023/01/12 06:33:02;;;;;;;8.30;1.97;;;7.90;99.90;;;;;;5057112;28;20494;-70
2023/01/12 06:35:31;;;;;;;4.60;2.03;;;7.90;99.90;;;;;;5057111;28;20610;-70
2023/01/12 06:37:57;;;;;;;9.93;2.33;;;8.00;99.90;;;;;;5057316;28;20892;-70
2023/01/12 06:40:24;;;;;;;7.30;2.23;;;8.00;99.90;;;;;;5056915;28;20454;-70
2023/01/12 06:42:51;;;;;;;3.10;1.40;;;8.00;99.90;;;;;;5056967;28;20479;-71
2023/01/12 06:45:18;;;;;;;5.53;2.00;;;8.00;99.90;;;;;;5056978;28;20459;-70
2023/01/12 06:47:46;;;;;;;5.60;2.83;;;8.10;99.90;;;;;;5057009;28;20465;-71
2023/01/12 06:50:13;;;;;;;8.93;1.93;;;8.10;99.90;;;;;;5056856;28;20459;-71
2023/01/12 06:52:41;;;;;;;7.37;2.10;;;8.10;99.90;;;;;;5056855;28;20736;-71
2023/01/12 06:55:09;;;;;;;3.40;1.83;;;8.10;99.90;;;;;;5057015;28;20465;-71
2023/01/12 06:57:35;;;;;;;4.00;1.90;;;8.10;99.90;;;;;;5056692;28;20459;-71
2023/01/12 07:00:04;;;;;;;6.03;1.93;;;8.10;99.90;;;;;;5057001;28;20455;-71
2023/01/12 07:02:31;;;;;;;5.87;1.77;;;8.10;99.90;;;;;;5056296;28;20474;-70
2023/01/12 07:04:58;;;;;;;6.07;1.60;;;8.20;99.90;;;;;;5056684;28;20546;-69
2023/01/12 07:07:25;;;;;;;4.80;1.83;;;8.10;99.90;;;;;;5056767;28;20470;-71
2023/01/12 07:09:53;;;;;;;6.57;2.00;;;8.10;99.90;;;;;;5056289;28;20455;-70
2023/01/12 07:12:20;;;;;;;5.33;1.70;;;8.10;99.90;;;;;;5056332;28;20461;-71
2023/01/12 07:14:47;;;;;;;8.83;2.17;;;8.20;99.90;;;;;;5056266;28;20491;-69
2023/01/12 07:17:14;;;;;;;5.27;1.70;;;8.20;99.90;;;;;;5056581;28;20481;-70
2023/01/12 07:19:41;;;;;;;7.93;2.20;;;8.20;99.90;;;;;;5056178;28;20532;-70
2023/01/12 07:22:08;;;;;;;9.13;1.93;;;8.20;99.90;;;;;;5055765;28;20552;-70
2023/01/12 07:24:34;;;;;;;6.17;1.90;;;8.20;99.90;;;;;;5056557;28;20451;-71
2023/01/12 07:27:03;;;;;;;5.23;1.73;;;8.20;99.90;;;;;;5054672;28;20537;-70
2023/01/12 07:29:30;;;;;;;6.87;2.50;;;8.20;99.90;;;;;;5056037;28;20455;-70
2023/01/12 07:31:56;;;;;;;7.93;2.00;;;8.20;99.90;;;;;;5056120;28;20461;-71
2023/01/12 07:34:24;;;;;;;8.10;2.50;;;8.20;99.90;;;;;;5055622;28;20463;-70
2023/01/12 07:36:51;;;;;;;6.03;2.23;;;8.30;99.90;;;;;;5055875;28;20478;-69
2023/01/12 07:39:18;;;;;;;8.30;4.10;;;8.30;99.90;;;;;;5056236;28;20528;-69
2023/01/12 07:44:30;;;;;;;4.60;1.77;;;8.30;99.90;;;;;;5055749;28;20431;-71
2023/01/12 07:46:58;;;;;;;8.60;2.00;;;8.30;99.90;;;;;;5056066;28;20543;-69
2023/01/12 07:49:25;;;;;;;4.67;2.30;;;8.40;99.90;;;;;;5055851;28;20466;-71
2023/01/12 07:51:53;;;;;;;4.87;1.60;;;8.40;99.90;;;;;;5056288;28;20461;-70
2023/01/12 07:54:20;;;;;;;5.70;1.90;;;8.40;99.90;;;;;;5056139;28;20466;-70
2023/01/12 07:56:47;;;;;;;6.20;1.90;;;8.40;99.90;;;;;;5056129;28;20459;-71
2023/01/12 07:59:14;;;;;;;6.50;2.43;;;8.40;99.90;;;;;;5056045;28;20969;-70
2023/01/12 08:01:42;;;;;;;13.07;3.10;;;8.40;99.90;;;;;;5055847;28;20562;-70
2023/01/12 08:04:09;;;;;;;7.03;2.20;;;8.40;99.90;;;;;;5055685;28;20561;-70
2023/01/12 08:06:36;;;;;;;5.90;2.13;;;8.40;99.90;;;;;;5055549;28;20483;-70
2023/01/12 08:09:03;;;;;;;3.73;2.03;;;8.40;99.90;;;;;;5055756;28;20495;-71
2023/01/12 08:11:30;;;;;;;5.60;2.20;;;8.50;99.90;;;;;;5055774;28;20461;-72
2023/01/12 08:13:57;;;;;;;8.53;2.53;;;8.50;99.90;;;;;;5055776;28;20786;-72
2023/01/12 08:16:29;;;;;;;10.30;2.40;;;8.50;99.90;;;;;;5055108;28;20914;-69
2023/01/12 08:19:01;;;;;;;5.93;2.37;;;8.40;99.90;;;;;;5055557;28;20439;-71
2023/01/12 08:21:34;;;;;;;6.73;2.70;;;8.50;99.90;;;;;;5054972;28;20546;-71
2023/01/12 08:24:04;;;;;;;9.40;2.30;;;8.50;99.90;;;;;;5055599;28;20981;-72
2023/01/12 08:26:35;;;;;;;3.73;1.80;;;8.50;99.90;;;;;;5056610;28;20439;-71
2023/01/12 08:29:07;;;;;;;5.87;2.10;;;8.60;99.90;;;;;;5056331;28;20478;-71
2023/01/12 08:31:35;;;;;;;8.07;3.53;;;8.50;99.90;;;;;;5055280;28;20467;-71
2023/01/12 08:34:04;;;;;;;8.17;2.87;;;8.60;99.90;;;;;;5055144;28;20458;-70
2023/01/12 08:36:32;;;;;;;6.07;2.67;;;8.60;99.90;;;;;;5055617;28;20542;-71
2023/01/12 08:39:00;;;;;;;7.60;2.50;;;8.60;99.90;;;;;;5054739;28;20489;-70
2023/01/12 08:41:33;;;;;;;5.23;1.73;;;8.60;99.90;;;;;;5055104;28;20470;-70
2023/01/12 08:44:05;;;;;;;6.37;2.33;;;8.70;99.90;;;;;;5055494;28;20874;-70
2023/01/12 08:46:34;;;;;;;7.33;2.43;;;8.70;99.90;;;;;;5055261;28;20435;-71
2023/01/12 08:49:01;;;;;;;6.57;2.23;;;8.70;99.90;;;;;;5055118;28;20614;-69
2023/01/12 08:51:30;;;;;;;6.97;1.53;;;8.70;99.90;;;;;;5055412;28;20489;-70
2023/01/12 08:53:56;;;;;;;7.10;2.03;;;8.80;99.90;;;;;;5055168;28;20543;-70
2023/01/12 08:56:23;;;;;;;4.20;1.70;;;8.80;99.90;;;;;;5054906;28;20738;-70
2023/01/12 08:58:50;;;;;;;10.40;3.43;;;8.80;99.90;;;;;;5054618;28;20463;-71
2023/01/12 09:01:18;;;;;;;4.80;1.73;;;8.90;99.90;;;;;;5054523;28;20459;-70
2023/01/12 09:03:47;;;;;;;9.33;2.43;;;8.90;99.90;;;;;;5054737;28;20516;-70
2023/01/12 09:06:16;;;;;;;6.50;1.33;;;8.90;99.90;;;;;;5054749;28;20462;-70
2023/01/12 09:08:45;;;;;;;6.60;1.30;;;9.00;99.90;;;;;;5054638;28;20554;-69
2023/01/12 09:11:14;;;;;;;8.30;1.70;;;9.00;99.90;;;;;;5054660;28;20474;-71
2023/01/12 09:13:41;;;;;;;3.53;1.60;;;9.00;99.90;;;;;;5054683;28;20469;-70
2023/01/12 09:16:09;;;;;;;5.87;1.87;;;9.00;99.90;;;;;;5055491;28;20477;-71
2023/01/12 09:18:36;;;;;;;8.63;2.20;;;9.10;99.90;;;;;;5055227;28;20459;-69
2023/01/12 09:21:05;;;;;;;2.70;1.60;;;9.00;99.90;;;;;;5055758;28;20832;-69
2023/01/12 09:23:32;;;;;;;4.07;1.50;;;9.10;99.90;;;;;;5055132;28;20582;-71
2023/01/12 09:26:04;;;;;;;7.17;1.80;;;9.10;99.90;;;;;;5054672;28;20486;-68
2023/01/12 09:28:32;;;;;;;6.50;1.40;;;9.10;99.90;;;;;;5054520;28;20455;-70
2023/01/12 09:31:03;;;;;;;7.33;2.30;;;9.20;99.90;;;;;;5055554;28;20478;-69
2023/01/12 09:33:30;;;;;;;9.70;2.43;;;9.20;99.90;;;;;;5054178;28;20543;-71
2023/01/12 09:36:02;;;;;;;3.13;1.93;;;9.30;99.90;;;;;;5054219;28;20459;-70
2023/01/12 09:38:29;;;;;;;3.23;1.33;;;9.30;99.90;;;;;;5054912;28;20455;-70
2023/01/12 09:40:57;;;;;;;6.07;2.03;;;9.30;99.90;;;;;;5054903;28;20487;-70
2023/01/12 09:49:03;;;;;;;5.40;1.60;;;9.40;99.90;;;;;;5054756;28;20439;-69
2023/01/12 09:51:36;;;;;;;3.93;1.40;;;9.40;99.90;;;;;;5061613;28;20494;-70
2023/01/12 09:54:06;;;;;;;6.20;1.97;;;9.40;99.90;;;;;;5078547;28;20446;-70
2023/01/12 09:56:38;;;;;;;7.33;1.33;;;9.50;99.90;;;;;;5078012;28;20454;-70
2023/01/12 09:59:21;;;;;;;3.77;1.57;;;9.50;99.90;;;;;;5078165;28;20442;-70
2023/01/12 10:01:52;;;;;;;2.70;1.53;;;9.50;99.90;;;;;;5077281;28;20453;-70
2023/01/12 10:04:20;;;;;;;5.03;1.70;;;9.60;99.90;;;;;;5077621;28;20525;-71
2023/01/12 10:06:47;;;;;;;6.60;2.00;;;9.70;99.90;;;;;;5077694;28;20454;-70
2023/01/12 10:09:18;;;;;;;6.27;1.30;;;9.70;99.90;;;;;;5078171;28;20505;-70
2023/01/12 10:11:50;;;;;;;7.93;1.80;;;9.70;99.90;;;;;;5078471;28;20448;-70
2023/01/12 10:14:47;;;;;;;3.37;1.30;;;9.70;99.90;;;;;;5077799;28;20905;-70
2023/01/12 10:17:30;;;;;;;5.57;1.90;;;9.80;99.90;;;;;;5077702;28;20478;-70
2023/01/12 10:20:05;;;;;;;4.43;1.70;;;9.80;99.90;;;;;;5078296;28;20438;-70
2023/01/12 10:22:39;;;;;;;4.30;1.73;;;9.90;99.90;;;;;;5077426;28;20477;-70
2023/01/12 10:25:16;;;;;;;3.27;1.50;;;9.90;99.90;;;;;;5078010;28;20478;-70
2023/01/12 10:27:45;;;;;;;8.60;1.80;;;9.90;99.90;;;;;;5078048;28;20889;-69
2023/01/12 10:30:18;;;;;;;4.57;1.50;;;9.90;99.90;;;;;;5078250;28;20558;-70
2023/01/12 10:32:45;;;;;;;3.30;1.60;;;10.00;99.90;;;;;;5077697;28;20518;-70
2023/01/12 10:35:17;;;;;;;4.60;1.40;;;10.00;99.90;;;;;;5077753;28;20815;-71
2023/01/12 10:37:49;;;;;;;5.03;1.70;;;10.00;99.90;;;;;;5077388;28;20474;-69
2023/01/12 10:40:26;;;;;;;6.90;1.67;;;10.10;99.90;;;;;;5077463;28;20565;-70
2023/01/12 10:45:45;;;;;;;6.53;1.93;;;10.10;99.90;;;;;;5077297;28;20553;-71
2023/01/12 10:48:19;;;;;;;7.10;1.60;;;10.10;99.90;;;;;;5077533;28;20454;-70
2023/01/12 10:50:57;;;;;;;3.43;1.30;;;10.10;99.90;;;;;;5077685;28;20956;-71
2023/01/12 10:53:28;;;;;;;5.37;1.80;;;10.00;99.90;;;;;;5077239;28;20438;-71
2023/01/12 10:55:56;;;;;;;9.70;1.90;;;10.00;99.90;;;;;;5077240;28;20548;-68
2023/01/12 10:58:27;;;;;;;5.97;1.43;;;10.00;99.90;;;;;;5077716;28;20454;-70
2023/01/12 11:00:55;;;;;;;6.50;1.47;;;10.00;99.90;;;;;;5076638;28;20521;-71
2023/01/12 11:03:30;;;;;;;12.53;1.70;;;9.90;99.90;;;;;;5076664;28;20492;-69
2023/01/12 11:06:15;;;;;;;5.63;1.53;;;9.80;99.90;;;;;;5076729;28;20442;-71
2023/01/12 11:08:42;;;;;;;5.40;1.70;;;9.70;99.90;;;;;;5075893;28;20856;-71
2023/01/12 11:11:22;;;;;;;5.50;1.63;;;9.70;99.90;;;;;;5076744;28;20726;-68
2023/01/12 11:13:53;;;;;;;6.50;1.87;;;9.60;99.90;;;;;;5076237;28;20521;-70
2023/01/12 11:16:23;;;;;;;3.50;1.80;;;9.50;99.90;;;;;;5077257;28;21019;-71
2023/01/12 11:18:58;;;;;;;2.80;1.70;;;9.50;99.90;;;;;;5076939;28;20896;-70
2023/01/12 11:21:29;;;;;;;4.63;2.10;;;9.40;99.90;;;;;;5076867;28;20528;-70
2023/01/12 11:24:02;;;;;;;4.13;1.70;;;9.30;99.90;;;;;;5075982;28;20576;-69
2023/01/12 11:26:37;;;;;;;5.10;2.10;;;9.30;99.90;;;;;;5076659;28;20452;-70
2023/01/12 11:29:25;;;;;;;8.60;2.40;;;9.20;99.90;;;;;;5077159;28;20448;-70
2023/01/12 11:31:58;;;;;;;9.23;2.37;;;9.20;99.90;;;;;;5077809;28;20758;-72
2023/01/12 11:34:29;;;;;;;5.53;1.83;;;9.20;99.90;;;;;;5076750;28;20541;-70
2023/01/12 11:37:04;;;;;;;5.00;2.97;;;9.10;99.90;;;;;;5077839;28;20453;-71
2023/01/12 11:39:31;;;;;;;5.43;1.60;;;9.00;99.90;;;;;;5077092;28;20528;-70
2023/01/12 11:44:49;;;;;;;8.57;2.10;;;8.90;99.90;;;;;;5078406;28;20434;-71
2023/01/12 11:47:24;;;;;;;4.50;1.60;;;8.90;99.90;;;;;;5079105;28;20865;-69
2023/01/12 11:49:58;;;;;;;5.80;2.07;;;8.90;99.90;;;;;;5077569;28;20473;-69
2023/01/12 11:52:26;;;;;;;5.97;1.40;;;8.90;99.90;;;;;;5077240;28;20444;-70
2023/01/12 11:54:53;;;;;;;3.63;1.43;;;9.00;99.90;;;;;;5077161;28;20516;-69
2023/01/12 11:57:44;;;;;;;5.23;1.70;;;9.00;99.90;;;;;;5076894;28;20800;-70
2023/01/12 12:00:38;;;;;;;8.90;2.23;;;9.00;99.90;;;;;;5072744;28;20553;-70
2023/01/12 12:03:28;;;;;;;5.13;1.80;;;9.10;99.90;;;;;;5074055;28;20774;-70
2023/01/12 12:06:02;;;;;;;5.20;1.83;;;9.20;99.90;;;;;;5076517;28;20474;-70
2023/01/12 12:08:39;;;;;;;6.63;1.47;;;9.20;99.90;;;;;;5076717;28;20538;-70
2023/01/12 12:11:14;;;;;;;3.53;1.60;;;9.30;99.90;;;;;;5076725;28;20442;-70
2023/01/12 12:13:52;;;;;;;4.90;1.50;;;9.30;99.90;;;;;;5075694;28;20481;-70
2023/01/12 12:16:29;;;;;;;5.23;1.50;;;9.50;99.90;;;;;;5076016;28;20457;-69
2023/01/12 12:19:13;;;;;;;3.00;1.60;;;9.50;99.90;;;;;;5076582;28;20457;-68
2023/01/12 12:21:47;;;;;;;5.57;1.73;;;9.50;99.90;;;;;;5076012;28;20456;-71
2023/01/12 12:24:38;;;;;;;3.87;1.47;;;9.60;99.90;;;;;;5075925;28;20564;-70
2023/01/12 12:27:15;;;;;;;3.80;1.10;;;9.60;99.90;;;;;;5076533;28;20838;-70
2023/01/12 12:30:03;;;;;;;4.27;1.10;;;9.60;99.90;;;;;;5076379;28;20438;-69
2023/01/12 12:32:37;;;;;;;5.07;1.40;;;9.70;99.90;;;;;;5076724;28;20497;-70
2023/01/12 12:35:33;;;;;;;2.20;0.90;;;9.70;99.90;;;;;;5076578;28;20456;-71
2023/01/12 12:38:10;;;;;;;3.20;1.70;;;9.80;99.90;;;;;;5077129;28;20441;-71
2023/01/12 12:46:34;;;;;;;2.20;0.83;;;9.90;99.90;;;;;;5077077;28;20913;-69
2023/01/12 12:49:04;;;;;;;3.70;1.00;;;9.90;99.90;;;;;;5075746;28;20446;-71
2023/01/12 12:51:36;;;;;;;3.37;1.20;;;9.90;99.90;;;;;;5076139;28;20450;-71
2023/01/12 12:54:06;;;;;;;2.00;0.73;;;9.90;99.90;;;;;;5076794;28;20443;-70
2023/01/12 12:56:36;;;;;;;1.70;0.77;;;10.00;99.90;;;;;;5075183;28;20911;-71
2023/01/12 12:59:03;;;;;;;1.30;0.83;;;10.00;99.90;;;;;;5075779;28;20454;-70
2023/01/12 13:01:41;;;;;;;1.87;1.00;;;10.00;99.90;;;;;;5074962;28;20488;-71
2023/01/12 13:04:10;;;;;;;1.47;0.83;;;10.00;99.90;;;;;;5074809;28;20931;-71
2023/01/12 13:06:39;;;;;;;2.33;1.07;;;10.10;99.90;;;;;;5074593;28;20913;-71
2023/01/12 13:09:38;;;;;;;4.53;0.93;;;10.10;99.90;;;;;;5072235;28;20549;-71
2023/01/12 13:12:32;;;;;;;2.40;0.93;;;10.10;99.90;;;;;;5074638;28;20883;-70
2023/01/12 13:15:28;;;;;;;2.60;1.23;;;10.10;99.90;;;;;;5074347;28;20479;-70
2023/01/12 13:17:55;;;;;;;1.83;0.90;;;10.10;99.90;;;;;;5066137;28;20509;-70
2023/01/12 13:20:51;;;;;;;3.23;1.10;;;10.20;99.90;;;;;;5055005;28;20447;-71
2023/01/12 13:23:42;;;;;;;1.70;1.00;;;10.20;99.90;;;;;;5054569;28;20664;-70
2023/01/12 13:26:44;;;;;;;1.50;0.90;;;10.20;99.90;;;;;;5059062;28;20458;-71
2023/01/12 13:29:40;;;;;;;3.83;1.23;;;10.20;99.90;;;;;;5058349;28;20458;-71
2023/01/12 13:32:42;;;;;;;1.80;1.03;;;10.20;99.90;;;;;;5058921;28;20986;-70
2023/01/12 13:35:53;;;;;;;1.30;0.70;;;10.20;99.90;;;;;;5059411;28;20468;-71
2023/01/12 13:38:33;;;;;;;5.00;0.93;;;10.20;99.90;;;;;;5059015;28;20578;-71
2023/01/12 13:41:12;;;;;;;1.80;0.73;;;10.20;99.90;;;;;;5058999;28;20474;-71
2023/01/12 13:43:42;;;;;;;2.40;1.07;;;10.20;99.90;;;;;;5058738;28;20466;-70
2023/01/12 13:46:14;;;;;;;3.13;1.10;;;10.20;99.90;;;;;;5059057;28;20787;-70
2023/01/12 13:48:45;;;;;;;1.97;0.90;;;10.30;99.90;;;;;;5059370;28;20477;-71
2023/01/12 13:51:16;;;;;;;2.70;1.10;;;10.30;99.90;;;;;;5058757;28;20557;-69
2023/01/12 13:53:43;;;;;;;5.03;0.80;;;10.30;99.90;;;;;;5059159;28;20444;-70
2023/01/12 13:56:20;;;;;;;1.10;0.60;;;10.30;99.90;;;;;;5059244;28;20458;-71
2023/01/12 13:58:51;;;;;;;1.77;0.80;;;10.30;99.90;;;;;;5058752;28;20506;-71
2023/01/12 14:01:22;;;;;;;1.70;1.00;;;10.30;99.90;;;;;;5059312;28;20559;-71
2023/01/12 14:04:09;;;;;;;1.33;0.90;;;10.30;99.90;;;;;;5059518;28;20550;-70
2023/01/12 14:06:43;;;;;;;1.50;0.70;;;10.30;99.90;;;;;;5059350;28;20531;-70